sensor_id;sensor_type;location;lat;lon;timestamp;P1;durP1;ratioP1;P2;durP2;ratioP2
20478;SDS011;10398;52.490;13.434;2023-03-13T00:00:59;7.27;;;3.43;;
20478;SDS011;10398;52.490;13.434;2023-03-13T00:03:26;15.07;;;4.13;;
20478;SDS011;10398;52.490;13.434;2023-03-13T00:05:55;11.90;;;4.20;;
20478;SDS011;10398;52.490;13.434;2023-03-13T00:08:22;13.23;;;3.63;;
20478;SDS011;10398;52.490;13.434;2023-03-13T00:10:49;8.73;;;3.87;;
20478;SDS011;10398;52.490;13.434;2023-03-13T00:13:14;10.23;;;3.87;;
20478;SDS011;10398;52.490;13.434;2023-03-13T00:15:40;7.73;;;3.00;;
20478;SDS011;10398;52.490;13.434;2023-03-13T00:18:06;14.40;;;4.43;;
20478;SDS011;10398;52.490;13.434;2023-03-13T00:20:31;16.00;;;4.90;;
20478;SDS011;10398;52.490;13.434;2023-03-13T00:22:57;11.70;;;4.20;;
20478;SDS011;10398;52.490;13.434;2023-03-13T00:25:22;8.43;;;3.60;;
20478;SDS011;10398;52.490;13.434;2023-03-13T00:27:48;11.33;;;4.03;;
20478;SDS011;10398;52.490;13.434;2023-03-13T00:30:14;12.50;;;4.03;;
20478;SDS011;10398;52.490;13.434;2023-03-13T00:32:40;18.53;;;4.20;;
20478;SDS011;10398;52.490;13.434;2023-03-13T00:35:07;6.07;;;3.17;;
20478;SDS011;10398;52.490;13.434;2023-03-13T00:37:33;14.70;;;4.23;;
20478;SDS011;10398;52.490;13.434;2023-03-13T00:39:59;9.33;;;3.93;;
20478;SDS011;10398;52.490;13.434;2023-03-13T00:42:24;8.50;;;4.07;;
20478;SDS011;10398;52.490;13.434;2023-03-13T00:44:50;11.10;;;3.90;;
20478;SDS011;10398;52.490;13.434;2023-03-13T00:47:15;19.53;;;4.23;;
20478;SDS011;10398;52.490;13.434;2023-03-13T00:49:41;9.53;;;4.30;;
20478;SDS011;10398;52.490;13.434;2023-03-13T00:52:07;11.63;;;4.10;;
20478;SDS011;10398;52.490;13.434;2023-03-13T00:54:33;12.10;;;4.00;;
20478;SDS011;10398;52.490;13.434;2023-03-13T00:56:58;11.50;;;3.80;;
20478;SDS011;10398;52.490;13.434;2023-03-13T00:59:24;16.83;;;5.10;;
20478;SDS011;10398;52.490;13.434;2023-03-13T01:01:49;15.50;;;3.93;;
20478;SDS011;10398;52.490;13.434;2023-03-13T01:04:15;9.43;;;4.70;;
20478;SDS011;10398;52.490;13.434;2023-03-13T01:06:41;8.87;;;3.67;;
20478;SDS011;10398;52.490;13.434;2023-03-13T01:09:07;8.60;;;4.00;;
20478;SDS011;10398;52.490;13.434;2023-03-13T01:11:37;14.50;;;4.30;;
20478;SDS011;10398;52.490;13.434;2023-03-13T01:14:05;9.50;;;3.67;;
20478;SDS011;10398;52.490;13.434;2023-03-13T01:16:33;11.87;;;4.37;;
20478;SDS011;10398;52.490;13.434;2023-03-13T01:19:07;14.80;;;3.83;;
20478;SDS011;10398;52.490;13.434;2023-03-13T01:21:35;13.93;;;4.30;;
20478;SDS011;10398;52.490;13.434;2023-03-13T01:24:01;8.87;;;3.87;;
20478;SDS011;10398;52.490;13.434;2023-03-13T01:26:27;9.57;;;4.03;;
20478;SDS011;10398;52.490;13.434;2023-03-13T01:28:53;12.03;;;4.20;;
20478;SDS011;10398;52.490;13.434;2023-03-13T01:31:26;9.70;;;3.87;;
20478;SDS011;10398;52.490;13.434;2023-03-13T01:33:54;12.33;;;4.60;;
20478;SDS011;10398;52.490;13.434;2023-03-13T01:36:21;14.67;;;4.10;;
20478;SDS011;10398;52.490;13.434;2023-03-13T01:38:48;11.13;;;4.17;;
20478;SDS011;10398;52.490;13.434;2023-03-13T01:41:15;10.53;;;4.50;;
20478;SDS011;10398;52.490;13.434;2023-03-13T01:43:42;15.50;;;4.03;;
20478;SDS011;10398;52.490;13.434;2023-03-13T01:46:16;10.60;;;4.10;;
20478;SDS011;10398;52.490;13.434;2023-03-13T01:49:04;9.87;;;3.83;;
20478;SDS011;10398;52.490;13.434;2023-03-13T01:51:49;7.47;;;3.97;;
20478;SDS011;10398;52.490;13.434;2023-03-13T01:54:22;11.87;;;4.83;;
20478;SDS011;10398;52.490;13.434;2023-03-13T01:59:25;11.17;;;3.80;;
20478;SDS011;10398;52.490;13.434;2023-03-13T02:01:59;12.43;;;4.17;;
20478;SDS011;10398;52.490;13.434;2023-03-13T02:04:27;11.87;;;4.23;;
20478;SDS011;10398;52.490;13.434;2023-03-13T02:07:00;9.33;;;4.17;;
20478;SDS011;10398;52.490;13.434;2023-03-13T02:09:29;6.50;;;3.37;;
20478;SDS011;10398;52.490;13.434;2023-03-13T02:14:32;8.97;;;3.53;;
20478;SDS011;10398;52.490;13.434;2023-03-13T02:17:01;12.23;;;3.87;;
20478;SDS011;10398;52.490;13.434;2023-03-13T02:19:36;9.57;;;3.90;;
20478;SDS011;10398;52.490;13.434;2023-03-13T02:27:15;12.83;;;3.97;;
20478;SDS011;10398;52.490;13.434;2023-03-13T02:29:41;10.37;;;4.17;;
20478;SDS011;10398;52.490;13.434;2023-03-13T02:32:07;13.43;;;4.30;;
20478;SDS011;10398;52.490;13.434;2023-03-13T02:34:33;11.97;;;3.93;;
20478;SDS011;10398;52.490;13.434;2023-03-13T02:37:02;12.00;;;3.97;;
20478;SDS011;10398;52.490;13.434;2023-03-13T02:39:30;13.87;;;3.97;;
20478;SDS011;10398;52.490;13.434;2023-03-13T02:41:57;13.27;;;3.63;;
20478;SDS011;10398;52.490;13.434;2023-03-13T02:44:24;10.27;;;3.80;;
20478;SDS011;10398;52.490;13.434;2023-03-13T02:46:50;8.47;;;3.07;;
20478;SDS011;10398;52.490;13.434;2023-03-13T02:49:21;11.83;;;3.17;;
20478;SDS011;10398;52.490;13.434;2023-03-13T02:51:52;11.43;;;3.77;;
20478;SDS011;10398;52.490;13.434;2023-03-13T02:54:37;13.97;;;4.10;;
20478;SDS011;10398;52.490;13.434;2023-03-13T02:57:05;12.40;;;3.60;;
20478;SDS011;10398;52.490;13.434;2023-03-13T02:59:31;10.67;;;3.67;;
20478;SDS011;10398;52.490;13.434;2023-03-13T03:01:57;8.97;;;3.33;;
20478;SDS011;10398;52.490;13.434;2023-03-13T03:04:26;12.37;;;3.40;;
20478;SDS011;10398;52.490;13.434;2023-03-13T03:06:52;10.63;;;3.70;;
20478;SDS011;10398;52.490;13.434;2023-03-13T03:09:18;14.57;;;3.90;;
20478;SDS011;10398;52.490;13.434;2023-03-13T03:11:45;13.20;;;3.73;;
20478;SDS011;10398;52.490;13.434;2023-03-13T03:14:11;11.17;;;3.63;;
20478;SDS011;10398;52.490;13.434;2023-03-13T03:16:37;10.20;;;3.50;;
20478;SDS011;10398;52.490;13.434;2023-03-13T03:19:03;13.27;;;3.30;;
20478;SDS011;10398;52.490;13.434;2023-03-13T03:21:30;13.40;;;3.53;;
20478;SDS011;10398;52.490;13.434;2023-03-13T03:23:56;6.83;;;2.90;;
20478;SDS011;10398;52.490;13.434;2023-03-13T03:26:22;10.43;;;2.93;;
20478;SDS011;10398;52.490;13.434;2023-03-13T03:28:48;12.73;;;3.30;;
20478;SDS011;10398;52.490;13.434;2023-03-13T03:31:14;10.97;;;2.70;;
20478;SDS011;10398;52.490;13.434;2023-03-13T03:33:40;15.73;;;3.13;;
20478;SDS011;10398;52.490;13.434;2023-03-13T03:36:08;8.83;;;2.37;;
20478;SDS011;10398;52.490;13.434;2023-03-13T03:38:36;8.80;;;2.43;;
20478;SDS011;10398;52.490;13.434;2023-03-13T03:41:03;6.37;;;2.30;;
20478;SDS011;10398;52.490;13.434;2023-03-13T03:43:30;9.20;;;2.53;;
20478;SDS011;10398;52.490;13.434;2023-03-13T03:45:56;11.60;;;2.80;;
20478;SDS011;10398;52.490;13.434;2023-03-13T03:48:21;9.53;;;2.43;;
20478;SDS011;10398;52.490;13.434;2023-03-13T03:50:47;6.43;;;2.70;;
20478;SDS011;10398;52.490;13.434;2023-03-13T03:53:13;11.70;;;2.73;;
20478;SDS011;10398;52.490;13.434;2023-03-13T03:55:39;9.00;;;2.63;;
20478;SDS011;10398;52.490;13.434;2023-03-13T03:58:04;5.57;;;2.30;;
20478;SDS011;10398;52.490;13.434;2023-03-13T04:00:30;8.17;;;2.37;;
20478;SDS011;10398;52.490;13.434;2023-03-13T04:02:56;7.70;;;2.50;;
20478;SDS011;10398;52.490;13.434;2023-03-13T04:05:22;13.13;;;2.90;;
20478;SDS011;10398;52.490;13.434;2023-03-13T04:07:48;15.57;;;2.47;;
20478;SDS011;10398;52.490;13.434;2023-03-13T04:10:14;15.17;;;3.30;;
20478;SDS011;10398;52.490;13.434;2023-03-13T04:12:40;13.10;;;1.80;;
20478;SDS011;10398;52.490;13.434;2023-03-13T04:15:06;11.77;;;2.20;;
20478;SDS011;10398;52.490;13.434;2023-03-13T04:17:32;9.37;;;2.13;;
20478;SDS011;10398;52.490;13.434;2023-03-13T04:19:58;13.37;;;2.80;;
20478;SDS011;10398;52.490;13.434;2023-03-13T04:22:24;10.80;;;2.63;;
20478;SDS011;10398;52.490;13.434;2023-03-13T04:24:49;8.57;;;2.50;;
20478;SDS011;10398;52.490;13.434;2023-03-13T04:27:16;11.63;;;2.87;;
20478;SDS011;10398;52.490;13.434;2023-03-13T04:29:42;12.17;;;2.93;;
20478;SDS011;10398;52.490;13.434;2023-03-13T04:32:07;11.33;;;3.03;;
20478;SDS011;10398;52.490;13.434;2023-03-13T04:34:33;9.87;;;1.93;;
20478;SDS011;10398;52.490;13.434;2023-03-13T04:36:59;12.67;;;2.67;;
20478;SDS011;10398;52.490;13.434;2023-03-13T04:39:25;13.60;;;2.10;;
20478;SDS011;10398;52.490;13.434;2023-03-13T04:41:51;10.83;;;2.17;;
20478;SDS011;10398;52.490;13.434;2023-03-13T04:44:17;8.73;;;2.13;;
20478;SDS011;10398;52.490;13.434;2023-03-13T04:46:43;11.37;;;2.70;;
20478;SDS011;10398;52.490;13.434;2023-03-13T04:49:09;13.50;;;2.80;;
20478;SDS011;10398;52.490;13.434;2023-03-13T04:51:35;9.07;;;1.90;;
20478;SDS011;10398;52.490;13.434;2023-03-13T04:54:00;12.87;;;3.60;;
20478;SDS011;10398;52.490;13.434;2023-03-13T04:56:27;12.37;;;4.07;;
20478;SDS011;10398;52.490;13.434;2023-03-13T04:58:53;9.53;;;3.57;;
20478;SDS011;10398;52.490;13.434;2023-03-13T05:01:19;13.27;;;2.93;;
20478;SDS011;10398;52.490;13.434;2023-03-13T05:03:45;10.57;;;3.37;;
20478;SDS011;10398;52.490;13.434;2023-03-13T05:06:11;15.73;;;3.57;;
20478;SDS011;10398;52.490;13.434;2023-03-13T05:08:36;13.70;;;2.93;;
20478;SDS011;10398;52.490;13.434;2023-03-13T05:11:02;15.33;;;2.83;;
20478;SDS011;10398;52.490;13.434;2023-03-13T05:13:29;17.70;;;2.87;;
20478;SDS011;10398;52.490;13.434;2023-03-13T05:15:55;13.47;;;3.07;;
20478;SDS011;10398;52.490;13.434;2023-03-13T05:18:20;9.43;;;2.90;;
20478;SDS011;10398;52.490;13.434;2023-03-13T05:20:46;8.80;;;2.40;;
20478;SDS011;10398;52.490;13.434;2023-03-13T05:23:11;18.00;;;2.87;;
20478;SDS011;10398;52.490;13.434;2023-03-13T05:25:37;8.80;;;1.87;;
20478;SDS011;10398;52.490;13.434;2023-03-13T05:28:03;11.20;;;3.03;;
20478;SDS011;10398;52.490;13.434;2023-03-13T05:30:28;14.80;;;3.17;;
20478;SDS011;10398;52.490;13.434;2023-03-13T05:32:54;14.97;;;2.90;;
20478;SDS011;10398;52.490;13.434;2023-03-13T05:35:20;8.37;;;2.90;;
20478;SDS011;10398;52.490;13.434;2023-03-13T05:37:46;13.77;;;2.77;;
20478;SDS011;10398;52.490;13.434;2023-03-13T05:40:11;19.97;;;2.80;;
20478;SDS011;10398;52.490;13.434;2023-03-13T05:42:38;11.80;;;3.00;;
20478;SDS011;10398;52.490;13.434;2023-03-13T05:45:04;13.63;;;2.57;;
20478;SDS011;10398;52.490;13.434;2023-03-13T05:47:30;12.93;;;2.37;;
20478;SDS011;10398;52.490;13.434;2023-03-13T05:49:55;12.83;;;2.93;;
20478;SDS011;10398;52.490;13.434;2023-03-13T05:52:21;11.27;;;2.20;;
20478;SDS011;10398;52.490;13.434;2023-03-13T05:54:47;9.30;;;2.40;;
20478;SDS011;10398;52.490;13.434;2023-03-13T05:57:13;6.10;;;1.63;;
20478;SDS011;10398;52.490;13.434;2023-03-13T05:59:38;14.77;;;3.00;;
20478;SDS011;10398;52.490;13.434;2023-03-13T06:02:04;8.93;;;2.07;;
20478;SDS011;10398;52.490;13.434;2023-03-13T06:04:30;8.97;;;2.43;;
20478;SDS011;10398;52.490;13.434;2023-03-13T06:06:55;9.60;;;2.27;;
20478;SDS011;10398;52.490;13.434;2023-03-13T06:09:21;10.40;;;2.60;;
20478;SDS011;10398;52.490;13.434;2023-03-13T06:11:47;11.60;;;2.43;;
20478;SDS011;10398;52.490;13.434;2023-03-13T06:14:13;16.87;;;3.07;;
20478;SDS011;10398;52.490;13.434;2023-03-13T06:16:38;13.07;;;2.73;;
20478;SDS011;10398;52.490;13.434;2023-03-13T06:19:04;11.63;;;2.63;;
20478;SDS011;10398;52.490;13.434;2023-03-13T06:21:30;7.10;;;2.77;;
20478;SDS011;10398;52.490;13.434;2023-03-13T06:23:55;19.20;;;2.37;;
20478;SDS011;10398;52.490;13.434;2023-03-13T06:26:21;9.63;;;2.33;;
20478;SDS011;10398;52.490;13.434;2023-03-13T06:28:48;11.27;;;2.77;;
20478;SDS011;10398;52.490;13.434;2023-03-13T06:31:14;14.53;;;2.53;;
20478;SDS011;10398;52.490;13.434;2023-03-13T06:33:40;13.83;;;2.63;;
20478;SDS011;10398;52.490;13.434;2023-03-13T06:36:07;11.03;;;2.13;;
20478;SDS011;10398;52.490;13.434;2023-03-13T06:38:33;11.23;;;1.97;;
20478;SDS011;10398;52.490;13.434;2023-03-13T06:40:59;15.30;;;2.47;;
20478;SDS011;10398;52.490;13.434;2023-03-13T06:43:25;9.87;;;2.40;;
20478;SDS011;10398;52.490;13.434;2023-03-13T06:45:51;9.90;;;2.10;;
20478;SDS011;10398;52.490;13.434;2023-03-13T06:48:17;19.43;;;2.93;;
20478;SDS011;10398;52.490;13.434;2023-03-13T06:50:43;11.13;;;2.47;;
20478;SDS011;10398;52.490;13.434;2023-03-13T06:53:13;14.37;;;2.70;;
20478;SDS011;10398;52.490;13.434;2023-03-13T06:55:41;14.63;;;2.20;;
20478;SDS011;10398;52.490;13.434;2023-03-13T06:58:06;18.57;;;2.30;;
20478;SDS011;10398;52.490;13.434;2023-03-13T07:00:32;9.93;;;2.40;;
20478;SDS011;10398;52.490;13.434;2023-03-13T07:02:58;11.87;;;2.80;;
20478;SDS011;10398;52.490;13.434;2023-03-13T07:05:24;13.47;;;2.83;;
20478;SDS011;10398;52.490;13.434;2023-03-13T07:07:50;7.57;;;2.37;;
20478;SDS011;10398;52.490;13.434;2023-03-13T07:10:15;8.70;;;2.57;;
20478;SDS011;10398;52.490;13.434;2023-03-13T07:12:41;9.47;;;2.23;;
20478;SDS011;10398;52.490;13.434;2023-03-13T07:15:08;13.07;;;3.00;;
20478;SDS011;10398;52.490;13.434;2023-03-13T07:17:35;9.80;;;2.50;;
20478;SDS011;10398;52.490;13.434;2023-03-13T07:20:02;16.17;;;2.77;;
20478;SDS011;10398;52.490;13.434;2023-03-13T07:22:34;12.17;;;2.37;;
20478;SDS011;10398;52.490;13.434;2023-03-13T07:24:59;12.23;;;2.97;;
20478;SDS011;10398;52.490;13.434;2023-03-13T07:27:25;13.13;;;2.70;;
20478;SDS011;10398;52.490;13.434;2023-03-13T07:29:51;11.33;;;2.27;;
20478;SDS011;10398;52.490;13.434;2023-03-13T07:32:16;22.80;;;3.20;;
20478;SDS011;10398;52.490;13.434;2023-03-13T07:34:42;8.03;;;1.93;;
20478;SDS011;10398;52.490;13.434;2023-03-13T07:37:09;8.77;;;1.97;;
20478;SDS011;10398;52.490;13.434;2023-03-13T07:39:39;14.00;;;3.00;;
20478;SDS011;10398;52.490;13.434;2023-03-13T07:42:06;12.63;;;2.63;;
20478;SDS011;10398;52.490;13.434;2023-03-13T07:44:33;13.63;;;3.33;;
20478;SDS011;10398;52.490;13.434;2023-03-13T07:46:59;16.37;;;2.93;;
20478;SDS011;10398;52.490;13.434;2023-03-13T07:49:25;11.53;;;2.47;;
20478;SDS011;10398;52.490;13.434;2023-03-13T07:51:51;11.33;;;2.57;;
20478;SDS011;10398;52.490;13.434;2023-03-13T07:54:17;14.20;;;3.60;;
20478;SDS011;10398;52.490;13.434;2023-03-13T07:56:42;11.70;;;2.90;;
20478;SDS011;10398;52.490;13.434;2023-03-13T07:59:08;17.00;;;3.53;;
20478;SDS011;10398;52.490;13.434;2023-03-13T08:01:34;24.20;;;4.00;;
20478;SDS011;10398;52.490;13.434;2023-03-13T08:04:00;17.40;;;3.50;;
20478;SDS011;10398;52.490;13.434;2023-03-13T08:06:26;13.47;;;2.70;;
20478;SDS011;10398;52.490;13.434;2023-03-13T08:08:57;12.30;;;2.63;;
20478;SDS011;10398;52.490;13.434;2023-03-13T08:11:24;16.93;;;2.90;;
20478;SDS011;10398;52.490;13.434;2023-03-13T08:13:51;12.30;;;2.60;;
20478;SDS011;10398;52.490;13.434;2023-03-13T08:16:18;12.60;;;2.53;;
20478;SDS011;10398;52.490;13.434;2023-03-13T08:19:03;12.07;;;2.90;;
20478;SDS011;10398;52.490;13.434;2023-03-13T08:21:30;7.20;;;2.27;;
20478;SDS011;10398;52.490;13.434;2023-03-13T08:23:59;14.67;;;2.40;;
20478;SDS011;10398;52.490;13.434;2023-03-13T08:26:27;10.97;;;2.03;;
20478;SDS011;10398;52.490;13.434;2023-03-13T08:28:58;11.97;;;2.80;;
20478;SDS011;10398;52.490;13.434;2023-03-13T08:31:32;12.10;;;2.17;;
20478;SDS011;10398;52.490;13.434;2023-03-13T08:34:00;14.67;;;2.27;;
20478;SDS011;10398;52.490;13.434;2023-03-13T08:36:26;11.27;;;2.03;;
20478;SDS011;10398;52.490;13.434;2023-03-13T08:39:00;11.90;;;2.70;;
20478;SDS011;10398;52.490;13.434;2023-03-13T08:41:39;8.63;;;2.33;;
20478;SDS011;10398;52.490;13.434;2023-03-13T08:44:06;12.37;;;2.53;;
20478;SDS011;10398;52.490;13.434;2023-03-13T08:46:34;10.17;;;2.70;;
20478;SDS011;10398;52.490;13.434;2023-03-13T08:49:00;13.47;;;2.30;;
20478;SDS011;10398;52.490;13.434;2023-03-13T08:51:27;12.23;;;2.37;;
20478;SDS011;10398;52.490;13.434;2023-03-13T08:53:53;15.33;;;2.20;;
20478;SDS011;10398;52.490;13.434;2023-03-13T08:56:23;14.60;;;2.60;;
20478;SDS011;10398;52.490;13.434;2023-03-13T08:58:52;12.47;;;2.30;;
20478;SDS011;10398;52.490;13.434;2023-03-13T09:01:20;10.40;;;2.43;;
20478;SDS011;10398;52.490;13.434;2023-03-13T09:03:48;21.70;;;3.13;;
20478;SDS011;10398;52.490;13.434;2023-03-13T09:06:14;13.70;;;1.97;;
20478;SDS011;10398;52.490;13.434;2023-03-13T09:08:40;10.03;;;2.37;;
20478;SDS011;10398;52.490;13.434;2023-03-13T09:11:07;12.07;;;2.13;;
20478;SDS011;10398;52.490;13.434;2023-03-13T09:13:36;8.87;;;1.87;;
20478;SDS011;10398;52.490;13.434;2023-03-13T09:16:04;12.57;;;2.30;;
20478;SDS011;10398;52.490;13.434;2023-03-13T09:18:32;12.33;;;2.17;;
20478;SDS011;10398;52.490;13.434;2023-03-13T09:20:59;6.03;;;1.97;;
20478;SDS011;10398;52.490;13.434;2023-03-13T09:23:25;13.20;;;2.43;;
20478;SDS011;10398;52.490;13.434;2023-03-13T09:25:52;11.83;;;2.53;;
20478;SDS011;10398;52.490;13.434;2023-03-13T09:28:19;9.87;;;2.00;;
20478;SDS011;10398;52.490;13.434;2023-03-13T09:30:45;8.10;;;3.57;;
20478;SDS011;10398;52.490;13.434;2023-03-13T09:33:10;12.63;;;3.47;;
20478;SDS011;10398;52.490;13.434;2023-03-13T09:35:39;13.20;;;3.83;;
20478;SDS011;10398;52.490;13.434;2023-03-13T09:38:05;11.47;;;2.50;;
20478;SDS011;10398;52.490;13.434;2023-03-13T09:40:36;12.23;;;3.20;;
20478;SDS011;10398;52.490;13.434;2023-03-13T09:43:10;11.10;;;2.77;;
20478;SDS011;10398;52.490;13.434;2023-03-13T09:45:51;9.73;;;1.83;;
20478;SDS011;10398;52.490;13.434;2023-03-13T09:48:25;10.50;;;2.07;;
20478;SDS011;10398;52.490;13.434;2023-03-13T09:50:58;6.67;;;2.03;;
20478;SDS011;10398;52.490;13.434;2023-03-13T09:53:41;13.07;;;2.10;;
20478;SDS011;10398;52.490;13.434;2023-03-13T09:56:15;6.97;;;1.97;;
20478;SDS011;10398;52.490;13.434;2023-03-13T09:58:49;7.57;;;2.13;;
20478;SDS011;10398;52.490;13.434;2023-03-13T10:01:41;8.63;;;2.07;;
20478;SDS011;10398;52.490;13.434;2023-03-13T10:06:43;12.27;;;2.17;;
20478;SDS011;10398;52.490;13.434;2023-03-13T10:09:27;9.30;;;2.00;;
20478;SDS011;10398;52.490;13.434;2023-03-13T10:12:11;6.67;;;2.30;;
20478;SDS011;10398;52.490;13.434;2023-03-13T10:14:59;9.73;;;1.70;;
20478;SDS011;10398;52.490;13.434;2023-03-13T10:17:48;5.87;;;1.80;;
20478;SDS011;10398;52.490;13.434;2023-03-13T10:22:46;11.83;;;2.77;;
20478;SDS011;10398;52.490;13.434;2023-03-13T10:25:32;8.83;;;1.83;;
20478;SDS011;10398;52.490;13.434;2023-03-13T10:27:59;9.40;;;2.20;;
20478;SDS011;10398;52.490;13.434;2023-03-13T10:32:53;6.33;;;2.33;;
20478;SDS011;10398;52.490;13.434;2023-03-13T10:35:26;6.33;;;1.83;;
20478;SDS011;10398;52.490;13.434;2023-03-13T10:38:01;5.37;;;1.70;;
20478;SDS011;10398;52.490;13.434;2023-03-13T10:40:29;6.97;;;1.63;;
20478;SDS011;10398;52.490;13.434;2023-03-13T10:43:00;7.40;;;1.70;;
20478;SDS011;10398;52.490;13.434;2023-03-13T10:45:30;12.47;;;1.97;;
20478;SDS011;10398;52.490;13.434;2023-03-13T10:48:01;8.03;;;2.17;;
20478;SDS011;10398;52.490;13.434;2023-03-13T10:50:35;6.10;;;2.03;;
20478;SDS011;10398;52.490;13.434;2023-03-13T10:56:18;4.03;;;1.50;;
20478;SDS011;10398;52.490;13.434;2023-03-13T10:58:48;5.60;;;1.70;;
20478;SDS011;10398;52.490;13.434;2023-03-13T11:03:56;5.60;;;1.57;;
20478;SDS011;10398;52.490;13.434;2023-03-13T11:06:34;10.20;;;1.70;;
20478;SDS011;10398;52.490;13.434;2023-03-13T11:14:18;4.50;;;1.30;;
20478;SDS011;10398;52.490;13.434;2023-03-13T11:16:58;6.73;;;1.90;;
20478;SDS011;10398;52.490;13.434;2023-03-13T11:19:54;6.33;;;1.60;;
20478;SDS011;10398;52.490;13.434;2023-03-13T11:28:01;7.33;;;1.50;;
20478;SDS011;10398;52.490;13.434;2023-03-13T11:33:57;5.90;;;0.97;;
20478;SDS011;10398;52.490;13.434;2023-03-13T11:36:18;4.37;;;1.00;;
20478;SDS011;10398;52.490;13.434;2023-03-13T11:41:44;5.03;;;1.50;;
20478;SDS011;10398;52.490;13.434;2023-03-13T12:01:04;2.63;;;1.30;;
20478;SDS011;10398;52.490;13.434;2023-03-13T12:06:34;3.00;;;0.70;;
20478;SDS011;10398;52.490;13.434;2023-03-13T12:09:05;2.80;;;0.63;;
20478;SDS011;10398;52.490;13.434;2023-03-13T12:16:42;1.23;;;0.73;;
20478;SDS011;10398;52.490;13.434;2023-03-13T12:19:35;4.70;;;1.87;;
20478;SDS011;10398;52.490;13.434;2023-03-13T12:22:31;5.30;;;1.60;;
20478;SDS011;10398;52.490;13.434;2023-03-13T12:25:14;3.03;;;1.10;;
20478;SDS011;10398;52.490;13.434;2023-03-13T12:27:49;3.17;;;0.90;;
20478;SDS011;10398;52.490;13.434;2023-03-13T12:33:15;2.77;;;0.97;;
20478;SDS011;10398;52.490;13.434;2023-03-13T12:35:50;1.03;;;0.60;;
20478;SDS011;10398;52.490;13.434;2023-03-13T12:38:27;1.50;;;0.80;;
20478;SDS011;10398;52.490;13.434;2023-03-13T12:41:07;1.97;;;0.90;;
20478;SDS011;10398;52.490;13.434;2023-03-13T12:43:49;3.83;;;0.60;;
20478;SDS011;10398;52.490;13.434;2023-03-13T12:46:36;3.53;;;0.70;;
20478;SDS011;10398;52.490;13.434;2023-03-13T12:52:13;1.40;;;0.80;;
20478;SDS011;10398;52.490;13.434;2023-03-13T13:00:35;1.10;;;0.60;;
20478;SDS011;10398;52.490;13.434;2023-03-13T13:03:06;3.03;;;1.20;;
20478;SDS011;10398;52.490;13.434;2023-03-13T13:05:57;2.60;;;0.67;;
20478;SDS011;10398;52.490;13.434;2023-03-13T13:08:24;1.50;;;0.80;;
20478;SDS011;10398;52.490;13.434;2023-03-13T13:10:50;3.10;;;0.60;;
20478;SDS011;10398;52.490;13.434;2023-03-13T13:13:18;1.70;;;0.60;;
20478;SDS011;10398;52.490;13.434;2023-03-13T13:16:00;3.53;;;1.50;;
20478;SDS011;10398;52.490;13.434;2023-03-13T13:18:32;4.17;;;0.83;;
20478;SDS011;10398;52.490;13.434;2023-03-13T13:25:53;2.00;;;0.73;;
20478;SDS011;10398;52.490;13.434;2023-03-13T13:28:31;1.73;;;0.70;;
20478;SDS011;10398;52.490;13.434;2023-03-13T13:31:00;1.57;;;1.00;;
20478;SDS011;10398;52.490;13.434;2023-03-13T13:38:45;2.23;;;0.80;;
20478;SDS011;10398;52.490;13.434;2023-03-13T13:43:41;2.88;;;1.20;;
20478;SDS011;10398;52.490;13.434;2023-03-13T13:46:21;2.20;;;1.17;;
20478;SDS011;10398;52.490;13.434;2023-03-13T13:51:34;3.37;;;0.90;;
20478;SDS011;10398;52.490;13.434;2023-03-13T13:54:29;3.88;;;1.00;;
20478;SDS011;10398;52.490;13.434;2023-03-13T13:57:19;1.77;;;0.90;;
20478;SDS011;10398;52.490;13.434;2023-03-13T14:02:45;3.17;;;0.97;;
20478;SDS011;10398;52.490;13.434;2023-03-13T14:07:56;4.03;;;0.77;;
20478;SDS011;10398;52.490;13.434;2023-03-13T14:12:58;3.50;;;1.30;;
20478;SDS011;10398;52.490;13.434;2023-03-13T14:15:25;6.83;;;1.77;;
20478;SDS011;10398;52.490;13.434;2023-03-13T14:17:57;5.77;;;2.30;;
20478;SDS011;10398;52.490;13.434;2023-03-13T14:20:36;3.57;;;1.80;;
20478;SDS011;10398;52.490;13.434;2023-03-13T14:23:04;5.80;;;2.30;;
20478;SDS011;10398;52.490;13.434;2023-03-13T14:28:19;1.50;;;0.90;;
20478;SDS011;10398;52.490;13.434;2023-03-13T14:30:50;2.08;;;1.13;;
20478;SDS011;10398;52.490;13.434;2023-03-13T14:33:18;5.57;;;2.05;;
20478;SDS011;10398;52.490;13.434;2023-03-13T14:35:44;3.23;;;1.13;;
20478;SDS011;10398;52.490;13.434;2023-03-13T14:38:21;6.20;;;1.57;;
20478;SDS011;10398;52.490;13.434;2023-03-13T14:40:50;5.20;;;1.30;;
20478;SDS011;10398;52.490;13.434;2023-03-13T14:43:32;2.87;;;1.40;;
20478;SDS011;10398;52.490;13.434;2023-03-13T14:46:00;1.83;;;0.93;;
20478;SDS011;10398;52.490;13.434;2023-03-13T14:48:54;3.10;;;1.07;;
20478;SDS011;10398;52.490;13.434;2023-03-13T14:51:21;3.43;;;1.40;;
20478;SDS011;10398;52.490;13.434;2023-03-13T14:53:52;6.47;;;2.13;;
20478;SDS011;10398;52.490;13.434;2023-03-13T14:56:19;10.50;;;2.90;;
20478;SDS011;10398;52.490;13.434;2023-03-13T14:58:45;2.60;;;1.30;;
20478;SDS011;10398;52.490;13.434;2023-03-13T15:01:25;3.40;;;1.43;;
20478;SDS011;10398;52.490;13.434;2023-03-13T15:03:54;2.47;;;1.20;;
20478;SDS011;10398;52.490;13.434;2023-03-13T15:06:21;4.33;;;1.50;;
20478;SDS011;10398;52.490;13.434;2023-03-13T15:11:51;4.77;;;1.70;;
20478;SDS011;10398;52.490;13.434;2023-03-13T15:14:55;3.43;;;1.20;;
20478;SDS011;10398;52.490;13.434;2023-03-13T15:17:16;5.80;;;1.73;;
20478;SDS011;10398;52.490;13.434;2023-03-13T15:19:51;5.10;;;1.50;;
20478;SDS011;10398;52.490;13.434;2023-03-13T15:22:19;3.00;;;1.40;;
20478;SDS011;10398;52.490;13.434;2023-03-13T15:24:53;6.50;;;2.37;;
20478;SDS011;10398;52.490;13.434;2023-03-13T15:27:20;7.00;;;2.33;;
20478;SDS011;10398;52.490;13.434;2023-03-13T15:29:47;5.87;;;1.80;;
20478;SDS011;10398;52.490;13.434;2023-03-13T15:32:32;6.78;;;2.38;;
20478;SDS011;10398;52.490;13.434;2023-03-13T15:34:59;5.33;;;1.83;;
20478;SDS011;10398;52.490;13.434;2023-03-13T15:37:26;4.47;;;1.77;;
20478;SDS011;10398;52.490;13.434;2023-03-13T15:39:53;4.97;;;2.07;;
20478;SDS011;10398;52.490;13.434;2023-03-13T15:42:20;3.10;;;1.33;;
20478;SDS011;10398;52.490;13.434;2023-03-13T15:44:47;3.47;;;1.60;;
20478;SDS011;10398;52.490;13.434;2023-03-13T15:47:19;3.00;;;1.33;;
20478;SDS011;10398;52.490;13.434;2023-03-13T15:49:46;4.83;;;1.50;;
20478;SDS011;10398;52.490;13.434;2023-03-13T15:52:13;4.73;;;2.13;;
20478;SDS011;10398;52.490;13.434;2023-03-13T15:54:46;7.00;;;2.40;;
20478;SDS011;10398;52.490;13.434;2023-03-13T15:57:20;4.53;;;1.47;;
20478;SDS011;10398;52.490;13.434;2023-03-13T15:59:49;3.87;;;1.63;;
20478;SDS011;10398;52.490;13.434;2023-03-13T16:02:20;4.13;;;1.63;;
20478;SDS011;10398;52.490;13.434;2023-03-13T16:04:47;2.93;;;1.30;;
20478;SDS011;10398;52.490;13.434;2023-03-13T16:07:14;4.20;;;1.50;;
20478;SDS011;10398;52.490;13.434;2023-03-13T16:09:42;6.03;;;1.17;;
20478;SDS011;10398;52.490;13.434;2023-03-13T16:12:08;4.20;;;1.80;;
20478;SDS011;10398;52.490;13.434;2023-03-13T16:14:35;5.07;;;2.10;;
20478;SDS011;10398;52.490;13.434;2023-03-13T16:17:02;8.80;;;2.63;;
20478;SDS011;10398;52.490;13.434;2023-03-13T16:19:36;3.37;;;1.60;;
20478;SDS011;10398;52.490;13.434;2023-03-13T16:22:01;7.07;;;1.97;;
20478;SDS011;10398;52.490;13.434;2023-03-13T16:24:27;3.00;;;1.40;;
20478;SDS011;10398;52.490;13.434;2023-03-13T16:26:52;4.00;;;1.33;;